Time;durP1;ratioP1;P1;durP2;ratioP2;P2;SDS_P1;SDS_P2;PMS_P1;PMS_P2;Temp;Humidity;BMP_temperature;BMP_pressure;BME280_temperature;BME280_humidity;BME280_pressure;Samples;Min_cycle;Max_cycle;Signal;HPM_P1;HPM_P2
2022/04/15 00:01:57;;;;;;;3.13;1.48;;;;;;;;;;5041238;28;20048;-61
2022/04/15 00:04:24;;;;;;;4.95;2.67;;;;;;;;;;5039964;28;20060;-61
2022/04/15 00:06:50;;;;;;;6.28;3.22;;;;;;;;;;5042118;28;20171;-61
2022/04/15 00:09:17;;;;;;;5.10;2.60;;;;;;;;;;5039475;28;20048;-61
2022/04/15 00:11:44;;;;;;;4.53;2.20;;;;;;;;;;5040518;28;20052;-60
2022/04/15 00:14:12;;;;;;;3.60;2.17;;;;;;;;;;5041608;28;20039;-60
2022/04/15 00:16:43;;;;;;;4.47;2.38;;;;;;;;;;5041865;28;20097;-58
2022/04/15 00:19:11;;;;;;;2.35;1.15;;;;;;;;;;5041226;28;20083;-60
2022/04/15 00:21:38;;;;;;;6.35;1.88;;;;;;;;;;5019406;28;20039;-60
2022/04/15 00:24:05;;;;;;;2.85;1.35;;;;;;;;;;5043146;28;20051;-61
2022/04/15 00:26:31;;;;;;;2.22;1.20;;;;;;;;;;5041978;28;20037;-61
2022/04/15 00:28:58;;;;;;;4.10;0.88;;;;;;;;;;5040786;28;20059;-61
2022/04/15 00:31:25;;;;;;;4.82;2.20;;;;;;;;;;5038940;28;20056;-61
2022/04/15 00:33:51;;;;;;;5.18;3.03;;;;;;;;;;5041087;28;20095;-61
2022/04/15 00:36:18;;;;;;;3.17;1.42;;;;;;;;;;5040801;28;20945;-61
2022/04/15 00:38:45;;;;;;;4.82;2.40;;;;;;;;;;5040782;28;20048;-59
2022/04/15 00:41:15;;;;;;;12.02;2.60;;;;;;;;;;5039857;28;20462;-59
2022/04/15 00:43:44;;;;;;;4.00;1.70;;;;;;;;;;5040164;28;20055;-61
2022/04/15 00:46:12;;;;;;;5.55;2.30;;;;;;;;;;5039671;28;20037;-59
2022/04/15 00:48:39;;;;;;;7.88;3.30;;;;;;;;;;5039985;28;20064;-61
2022/04/15 00:51:07;;;;;;;5.95;2.53;;;;;;;;;;5040482;28;20485;-59
2022/04/15 00:53:34;;;;;;;5.85;3.33;;;;;;;;;;5040574;28;20055;-59
2022/04/15 00:56:03;;;;;;;6.70;3.58;;;;;;;;;;5042034;28;20060;-60
2022/04/15 00:58:32;;;;;;;3.25;1.70;;;;;;;;;;5039954;28;20037;-60
2022/04/15 01:00:59;;;;;;;3.20;1.85;;;;;;;;;;5039222;28;20055;-60
2022/04/15 01:03:25;;;;;;;6.30;2.83;;;;;;;;;;5039659;28;20041;-60
2022/04/15 01:06:01;;;;;;;3.28;1.67;;;;;;;;;;5039807;28;20043;-60
2022/04/15 01:08:29;;;;;;;6.88;2.30;;;;;;;;;;5038964;28;20048;-61
2022/04/15 01:10:57;;;;;;;4.82;2.25;;;;;;;;;;5040788;28;20037;-61
2022/04/15 01:13:24;;;;;;;2.83;1.50;;;;;;;;;;5040003;28;20724;-60
2022/04/15 01:15:52;;;;;;;6.68;3.08;;;;;;;;;;5039339;28;20051;-61
2022/04/15 01:18:19;;;;;;;6.40;2.83;;;;;;;;;;5038195;28;20072;-60
2022/04/15 01:20:48;;;;;;;11.05;3.60;;;;;;;;;;5039820;28;20064;-61
2022/04/15 01:23:15;;;;;;;6.32;2.60;;;;;;;;;;5035333;28;20782;-60
2022/04/15 01:25:41;;;;;;;6.45;3.30;;;;;;;;;;5040345;28;20040;-60
2022/04/15 01:28:09;;;;;;;10.90;3.97;;;;;;;;;;5041361;28;20507;-61
2022/04/15 01:30:35;;;;;;;5.57;2.63;;;;;;;;;;5039898;28;20615;-60
2022/04/15 01:33:03;;;;;;;6.05;2.72;;;;;;;;;;5040432;28;20040;-61
2022/04/15 01:35:30;;;;;;;5.50;2.60;;;;;;;;;;5039329;28;20402;-61
2022/04/15 01:37:59;;;;;;;3.90;1.83;;;;;;;;;;5039824;28;20036;-61
2022/04/15 01:40:26;;;;;;;4.85;1.33;;;;;;;;;;5038304;28;20037;-60
2022/04/15 01:42:53;;;;;;;5.28;2.65;;;;;;;;;;5039073;28;20572;-61
2022/04/15 01:45:19;;;;;;;10.32;3.42;;;;;;;;;;5039953;28;20446;-61
2022/04/15 01:47:46;;;;;;;3.58;1.77;;;;;;;;;;5039626;28;21860;-60
2022/04/15 01:50:13;;;;;;;5.07;2.80;;;;;;;;;;5040622;28;20044;-61
2022/04/15 01:52:39;;;;;;;15.40;2.60;;;;;;;;;;5037100;28;20080;-63
2022/04/15 01:55:06;;;;;;;12.23;3.78;;;;;;;;;;5042522;28;20036;-62
2022/04/15 01:57:33;;;;;;;3.55;1.75;;;;;;;;;;5052452;28;20413;-61
2022/04/15 02:00:00;;;;;;;6.70;3.30;;;;;;;;;;5048299;28;20123;-60
2022/04/15 02:02:26;;;;;;;7.20;3.65;;;;;;;;;;5042610;28;20041;-59
2022/04/15 02:04:53;;;;;;;7.43;3.00;;;;;;;;;;5044100;28;20445;-60
2022/04/15 02:07:20;;;;;;;4.18;2.17;;;;;;;;;;5043497;28;20044;-61
2022/04/15 02:09:47;;;;;;;7.90;3.60;;;;;;;;;;5043877;28;20047;-62
2022/04/15 02:12:13;;;;;;;5.32;2.90;;;;;;;;;;5041170;28;20482;-61
2022/04/15 02:14:40;;;;;;;7.57;2.70;;;;;;;;;;5044728;28;20051;-60
2022/04/15 02:17:07;;;;;;;8.77;2.63;;;;;;;;;;5044710;28;20095;-63
2022/04/15 02:19:34;;;;;;;6.45;3.33;;;;;;;;;;5042269;28;20073;-61
2022/04/15 02:22:00;;;;;;;7.20;3.10;;;;;;;;;;5043032;28;20041;-61
2022/04/15 02:24:27;;;;;;;9.20;3.42;;;;;;;;;;5041926;28;20048;-63
2022/04/15 02:26:54;;;;;;;3.53;1.92;;;;;;;;;;5045373;28;20520;-63
2022/04/15 02:29:21;;;;;;;4.00;2.20;;;;;;;;;;5042605;28;20595;-60
2022/04/15 02:31:47;;;;;;;8.05;3.70;;;;;;;;;;5044417;28;20036;-61
2022/04/15 02:34:14;;;;;;;4.82;2.33;;;;;;;;;;5043701;28;20140;-62
2022/04/15 02:36:41;;;;;;;4.22;2.47;;;;;;;;;;5041853;28;20032;-62
2022/04/15 02:39:10;;;;;;;3.58;1.52;;;;;;;;;;5044423;28;20044;-60
2022/04/15 02:41:39;;;;;;;12.85;1.67;;;;;;;;;;5041002;28;20109;-60
2022/04/15 02:44:07;;;;;;;2.38;1.40;;;;;;;;;;5042640;28;20064;-59
2022/04/15 02:46:35;;;;;;;4.38;2.08;;;;;;;;;;5043055;28;20060;-60
2022/04/15 02:49:02;;;;;;;6.28;1.63;;;;;;;;;;5044053;28;20044;-60
2022/04/15 02:51:29;;;;;;;19.67;4.07;;;;;;;;;;5043215;28;20048;-61
2022/04/15 02:53:56;;;;;;;6.43;2.25;;;;;;;;;;5022556;28;20053;-61
2022/04/15 02:56:22;;;;;;;6.60;3.55;;;;;;;;;;5042485;28;21836;-61
2022/04/15 02:58:49;;;;;;;4.70;2.83;;;;;;;;;;5042717;28;20055;-60
2022/04/15 03:01:16;;;;;;;7.13;2.80;;;;;;;;;;5035552;28;20990;-61
2022/04/15 03:03:42;;;;;;;5.72;3.33;;;;;;;;;;5042401;28;20123;-60
2022/04/15 03:06:09;;;;;;;3.30;1.38;;;;;;;;;;5043292;28;20045;-62
2022/04/15 03:08:36;;;;;;;6.95;3.05;;;;;;;;;;5040372;28;20052;-61
2022/04/15 03:11:03;;;;;;;1.05;0.70;;;;;;;;;;5042922;28;20187;-61
2022/04/15 03:13:29;;;;;;;1.33;0.80;;;;;;;;;;5041914;28;20458;-61
2022/04/15 03:15:56;;;;;;;3.88;1.60;;;;;;;;;;5041642;28;21708;-62
2022/04/15 03:18:23;;;;;;;7.13;3.05;;;;;;;;;;5043185;28;20075;-63
2022/04/15 03:20:50;;;;;;;7.82;3.63;;;;;;;;;;5046197;28;20443;-65
2022/04/15 03:23:19;;;;;;;3.45;1.63;;;;;;;;;;5044748;28;20055;-62
2022/04/15 03:25:49;;;;;;;4.18;1.58;;;;;;;;;;5043671;28;20102;-64
2022/04/15 03:28:15;;;;;;;2.50;1.05;;;;;;;;;;5044892;28;20045;-63
2022/04/15 03:30:42;;;;;;;3.88;1.80;;;;;;;;;;5048471;28;20668;-61
2022/04/15 03:33:09;;;;;;;4.43;1.52;;;;;;;;;;5046746;28;20049;-62
2022/04/15 03:35:36;;;;;;;2.50;1.05;;;;;;;;;;5044515;28;20041;-61
2022/04/15 03:38:03;;;;;;;2.55;1.42;;;;;;;;;;5045848;28;20071;-62
2022/04/15 03:40:29;;;;;;;1.80;0.80;;;;;;;;;;5044400;28;20413;-61
2022/04/15 03:42:56;;;;;;;4.28;2.10;;;;;;;;;;5044996;28;20428;-60
2022/04/15 03:45:24;;;;;;;3.30;1.50;;;;;;;;;;5044596;28;20037;-59
2022/04/15 03:47:51;;;;;;;5.00;1.77;;;;;;;;;;5043655;28;20547;-61
2022/04/15 03:50:18;;;;;;;5.18;1.73;;;;;;;;;;5044712;28;20040;-61
2022/04/15 03:52:48;;;;;;;3.97;1.63;;;;;;;;;;5043480;28;20378;-58
2022/04/15 03:55:19;;;;;;;4.57;1.67;;;;;;;;;;5023117;28;20668;-60
2022/04/15 03:57:49;;;;;;;4.05;1.75;;;;;;;;;;5042359;28;20119;-61
2022/04/15 04:00:17;;;;;;;5.45;2.30;;;;;;;;;;5044869;28;20054;-61
2022/04/15 04:02:45;;;;;;;4.22;2.35;;;;;;;;;;5043046;28;20044;-58
2022/04/15 04:05:15;;;;;;;2.92;1.50;;;;;;;;;;5045323;28;20120;-60
2022/04/15 04:07:42;;;;;;;3.38;1.23;;;;;;;;;;5041978;28;20056;-61
2022/04/15 04:10:11;;;;;;;5.70;2.35;;;;;;;;;;5044073;28;20029;-61
2022/04/15 04:12:38;;;;;;;3.60;1.50;;;;;;;;;;5023350;28;21016;-60
2022/04/15 04:15:06;;;;;;;3.10;1.63;;;;;;;;;;5044375;28;20041;-62
2022/04/15 04:17:33;;;;;;;2.45;1.27;;;;;;;;;;5043225;28;20083;-60
2022/04/15 04:20:01;;;;;;;3.25;1.70;;;;;;;;;;5041693;28;20063;-60
2022/04/15 04:22:28;;;;;;;1.92;0.88;;;;;;;;;;5040274;28;20047;-61
2022/04/15 04:24:55;;;;;;;2.25;1.02;;;;;;;;;;5041929;28;20063;-60
2022/04/15 04:27:22;;;;;;;3.53;1.95;;;;;;;;;;5040923;28;20132;-60
2022/04/15 04:29:49;;;;;;;5.35;2.47;;;;;;;;;;5042951;28;20577;-60
2022/04/15 04:32:16;;;;;;;5.25;2.53;;;;;;;;;;5041159;28;20044;-59
2022/04/15 04:34:43;;;;;;;2.75;1.27;;;;;;;;;;5040699;28;20464;-59
2022/04/15 04:37:10;;;;;;;5.28;2.00;;;;;;;;;;5041054;28;20055;-61
2022/04/15 04:39:36;;;;;;;1.60;0.85;;;;;;;;;;5041091;28;20045;-62
2022/04/15 04:42:04;;;;;;;4.00;1.80;;;;;;;;;;5039844;28;20048;-62
2022/04/15 04:44:34;;;;;;;4.00;1.77;;;;;;;;;;5041494;28;20056;-60
2022/04/15 04:47:01;;;;;;;2.92;1.20;;;;;;;;;;5041586;28;20037;-61
2022/04/15 04:49:28;;;;;;;9.00;2.17;;;;;;;;;;5039563;28;20110;-60
2022/04/15 04:51:55;;;;;;;3.40;1.80;;;;;;;;;;5041865;28;20584;-61
2022/04/15 04:54:22;;;;;;;4.85;1.95;;;;;;;;;;5039174;28;20037;-61
2022/04/15 04:56:48;;;;;;;2.85;1.48;;;;;;;;;;5041566;28;20104;-64
2022/04/15 04:59:15;;;;;;;5.95;2.55;;;;;;;;;;5020166;28;20292;-62
2022/04/15 05:01:42;;;;;;;7.65;3.40;;;;;;;;;;5041099;28;20461;-63
2022/04/15 05:04:09;;;;;;;8.88;3.25;;;;;;;;;;5042149;28;20070;-62
2022/04/15 05:06:35;;;;;;;4.18;2.45;;;;;;;;;;5041171;28;20040;-60
2022/04/15 05:09:02;;;;;;;6.68;3.75;;;;;;;;;;5039892;28;20049;-60
2022/04/15 05:11:29;;;;;;;11.35;4.00;;;;;;;;;;5040203;28;20049;-61
2022/04/15 05:13:55;;;;;;;5.53;2.97;;;;;;;;;;5040465;28;20043;-61
2022/04/15 05:16:22;;;;;;;3.30;1.73;;;;;;;;;;5040132;28;20489;-61
2022/04/15 05:18:49;;;;;;;4.25;2.30;;;;;;;;;;5022452;28;20133;-61
2022/04/15 05:21:15;;;;;;;5.18;2.78;;;;;;;;;;5042703;28;20041;-61
2022/04/15 05:23:42;;;;;;;8.93;4.53;;;;;;;;;;5041404;28;20040;-61
2022/04/15 05:26:09;;;;;;;8.35;4.63;;;;;;;;;;5042098;28;20693;-61
2022/04/15 05:28:36;;;;;;;8.93;4.03;;;;;;;;;;5040148;28;20056;-62
2022/04/15 05:31:05;;;;;;;13.88;6.85;;;;;;;;;;5041711;28;20092;-62
2022/04/15 05:33:32;;;;;;;11.75;6.35;;;;;;;;;;5040581;28;20075;-60
2022/04/15 05:35:59;;;;;;;3.78;1.98;;;;;;;;;;5042179;28;20060;-61
2022/04/15 05:38:26;;;;;;;7.05;3.90;;;;;;;;;;5040492;28;20040;-62
2022/04/15 05:40:52;;;;;;;2.53;1.65;;;;;;;;;;5041729;28;20053;-61
2022/04/15 05:43:19;;;;;;;8.65;4.82;;;;;;;;;;5040502;28;20047;-61
2022/04/15 05:45:46;;;;;;;9.05;4.88;;;;;;;;;;5041759;28;20044;-61
2022/04/15 05:48:13;;;;;;;10.75;5.05;;;;;;;;;;5041306;28;20048;-61
2022/04/15 05:50:39;;;;;;;9.23;5.43;;;;;;;;;;5041037;28;20693;-61
2022/04/15 05:53:06;;;;;;;11.52;4.78;;;;;;;;;;5040638;28;20478;-61
2022/04/15 05:55:35;;;;;;;8.10;5.20;;;;;;;;;;5040518;28;20128;-60
2022/04/15 05:58:02;;;;;;;7.47;5.05;;;;;;;;;;5041794;28;20040;-60
2022/04/15 06:00:29;;;;;;;7.53;4.60;;;;;;;;;;5040529;28;20612;-60
2022/04/15 06:02:55;;;;;;;9.75;5.30;;;;;;;;;;5041593;28;21817;-60
2022/04/15 06:05:24;;;;;;;8.88;4.90;;;;;;;;;;5022860;28;20785;-61
2022/04/15 06:07:52;;;;;;;15.18;5.22;;;;;;;;;;5040842;28;20091;-59
2022/04/15 06:10:19;;;;;;;8.68;4.32;;;;;;;;;;5041252;28;20043;-61
2022/04/15 06:13:03;;;;;;;12.50;3.75;;;;;;;;;;5040244;28;20068;-62
2022/04/15 06:15:31;;;;;;;11.27;4.30;;;;;;;;;;5040815;28;20036;-62
2022/04/15 06:17:58;;;;;;;7.47;3.25;;;;;;;;;;5022762;28;20071;-61
2022/04/15 06:20:25;;;;;;;4.00;2.53;;;;;;;;;;5040113;28;20440;-62
2022/04/15 06:22:52;;;;;;;6.68;3.20;;;;;;;;;;5041049;28;20041;-59
2022/04/15 06:25:19;;;;;;;4.22;2.25;;;;;;;;;;5040957;28;20068;-61
2022/04/15 06:27:45;;;;;;;8.32;4.07;;;;;;;;;;5040073;28;20064;-60
2022/04/15 06:30:12;;;;;;;3.92;2.05;;;;;;;;;;5041167;28;20037;-60
2022/04/15 06:32:39;;;;;;;16.00;3.28;;;;;;;;;;5039564;28;20110;-61
2022/04/15 06:35:06;;;;;;;6.85;3.33;;;;;;;;;;5040014;28;20048;-61
2022/04/15 06:37:33;;;;;;;6.82;3.08;;;;;;;;;;5039940;28;20048;-61
2022/04/15 06:39:59;;;;;;;5.53;2.55;;;;;;;;;;5041292;28;20048;-59
2022/04/15 06:42:27;;;;;;;5.30;2.70;;;;;;;;;;5043119;28;20037;-60
2022/04/15 06:44:54;;;;;;;2.53;1.33;;;;;;;;;;5027481;28;20036;-62
2022/04/15 06:47:21;;;;;;;4.57;1.90;;;;;;;;;;5045871;28;20060;-61
2022/04/15 06:49:48;;;;;;;3.70;1.58;;;;;;;;;;5046064;28;20168;-60
2022/04/15 06:52:17;;;;;;;4.80;1.95;;;;;;;;;;5046677;28;20047;-61
2022/04/15 06:54:44;;;;;;;3.28;1.77;;;;;;;;;;5044560;28;20499;-62
2022/04/15 06:57:11;;;;;;;8.13;2.67;;;;;;;;;;5044169;28;20043;-61
2022/04/15 06:59:38;;;;;;;4.07;1.65;;;;;;;;;;5028751;28;20041;-61
2022/04/15 07:02:05;;;;;;;0.70;0.38;;;;;;;;;;5047651;28;20078;-61
2022/04/15 07:04:32;;;;;;;7.10;1.52;;;;;;;;;;5044642;28;20057;-60
2022/04/15 07:06:59;;;;;;;5.63;1.95;;;;;;;;;;5046369;28;20083;-58
2022/04/15 07:09:26;;;;;;;2.70;1.15;;;;;;;;;;5045095;28;20049;-61
2022/04/15 07:11:53;;;;;;;4.03;1.15;;;;;;;;;;5043805;28;20056;-60
2022/04/15 07:14:20;;;;;;;2.30;1.23;;;;;;;;;;5043372;28;20045;-59
2022/04/15 07:16:46;;;;;;;1.45;0.88;;;;;;;;;;5044542;28;21794;-60
2022/04/15 07:19:13;;;;;;;1.15;0.70;;;;;;;;;;5042856;28;20137;-60
2022/04/15 07:21:42;;;;;;;4.22;1.30;;;;;;;;;;5041225;28;20041;-60
2022/04/15 07:24:09;;;;;;;1.70;0.75;;;;;;;;;;5043552;28;20053;-60
2022/04/15 07:26:35;;;;;;;3.35;1.42;;;;;;;;;;5039926;28;20120;-61
2022/04/15 07:29:02;;;;;;;1.23;0.68;;;;;;;;;;5042233;28;20150;-61
2022/04/15 07:31:29;;;;;;;4.15;1.52;;;;;;;;;;5042363;28;20172;-61
2022/04/15 07:33:56;;;;;;;3.03;1.05;;;;;;;;;;5042473;28;20517;-62
2022/04/15 07:36:57;;;;;;;3.80;1.50;;;;;;;;;;5040794;28;20126;-61
2022/04/15 07:39:15;;;;;;;2.72;0.75;;;;;;;;;;5039541;28;20148;-61
2022/04/15 07:41:43;;;;;;;2.45;1.15;;;;;;;;;;5041507;28;21940;-62
2022/04/15 07:44:11;;;;;;;1.92;0.77;;;;;;;;;;5042306;28;20568;-62
2022/04/15 07:46:38;;;;;;;3.22;1.30;;;;;;;;;;5040202;28;20425;-61
2022/04/15 07:49:05;;;;;;;5.10;2.00;;;;;;;;;;5042771;28;20064;-62
2022/04/15 07:51:32;;;;;;;3.22;1.52;;;;;;;;;;5040647;28;20033;-61
2022/04/15 07:53:59;;;;;;;4.13;1.50;;;;;;;;;;5041426;28;20136;-60
2022/04/15 07:56:26;;;;;;;4.30;2.00;;;;;;;;;;5041610;28;20120;-61
2022/04/15 07:58:52;;;;;;;3.28;1.40;;;;;;;;;;5041524;28;20072;-62
2022/04/15 08:01:19;;;;;;;3.20;1.35;;;;;;;;;;5042327;28;20514;-60
2022/04/15 08:03:46;;;;;;;1.70;0.82;;;;;;;;;;5024272;28;20059;-61
2022/04/15 08:06:13;;;;;;;4.30;1.98;;;;;;;;;;5043575;28;20037;-59
2022/04/15 08:08:40;;;;;;;4.20;1.90;;;;;;;;;;5041545;28;20048;-59
2022/04/15 08:11:06;;;;;;;4.95;2.33;;;;;;;;;;5026131;28;20117;-64
2022/04/15 08:13:33;;;;;;;5.55;2.58;;;;;;;;;;5042162;28;20033;-60
2022/04/15 08:16:00;;;;;;;10.10;2.22;;;;;;;;;;5042446;28;20411;-61
2022/04/15 08:18:27;;;;;;;9.82;2.33;;;;;;;;;;5039801;28;20053;-61
2022/04/15 08:20:56;;;;;;;5.30;2.80;;;;;;;;;;5041034;28;20128;-60
2022/04/15 08:23:23;;;;;;;12.70;4.32;;;;;;;;;;5038755;28;20579;-62
2022/04/15 08:25:49;;;;;;;8.20;4.03;;;;;;;;;;5039840;28;20110;-62
2022/04/15 08:28:16;;;;;;;7.45;4.15;;;;;;;;;;5043043;28;20112;-64
2022/04/15 08:30:43;;;;;;;15.05;5.03;;;;;;;;;;5040160;28;20043;-61
2022/04/15 08:33:10;;;;;;;7.60;4.45;;;;;;;;;;5041312;28;20175;-60
2022/04/15 08:35:37;;;;;;;7.93;3.92;;;;;;;;;;5039982;28;20082;-62
2022/04/15 08:38:04;;;;;;;7.93;3.95;;;;;;;;;;5039818;28;20033;-61
2022/04/15 08:40:31;;;;;;;7.03;4.05;;;;;;;;;;5038254;28;20478;-62
2022/04/15 08:43:00;;;;;;;8.32;4.22;;;;;;;;;;5040690;28;20083;-62
2022/04/15 08:45:27;;;;;;;7.43;3.53;;;;;;;;;;5038598;28;20055;-61
2022/04/15 08:47:59;;;;;;;5.97;3.13;;;;;;;;;;5052150;28;20045;-62
2022/04/15 08:50:27;;;;;;;2.97;1.23;;;;;;;;;;5054043;28;20037;-60
2022/04/15 08:52:54;;;;;;;4.50;1.80;;;;;;;;;;5014942;28;20202;-61
2022/04/15 08:55:24;;;;;;;7.38;1.65;;;;;;;;;;5013520;28;20079;-61
2022/04/15 08:57:52;;;;;;;4.18;1.73;;;;;;;;;;5015559;28;20051;-62
2022/04/15 09:00:19;;;;;;;8.00;1.95;;;;;;;;;;5014645;28;20136;-60
2022/04/15 09:02:47;;;;;;;4.78;2.08;;;;;;;;;;5010998;28;20042;-60
2022/04/15 09:05:14;;;;;;;5.18;2.15;;;;;;;;;;5012385;28;20209;-62
2022/04/15 09:07:41;;;;;;;5.68;2.58;;;;;;;;;;5009697;28;20061;-60
2022/04/15 09:10:10;;;;;;;4.97;2.10;;;;;;;;;;5010817;28;20099;-61
2022/04/15 09:12:37;;;;;;;5.80;2.80;;;;;;;;;;5012203;28;20052;-61
2022/04/15 09:15:07;;;;;;;5.00;2.60;;;;;;;;;;5013136;28;20606;-61
2022/04/15 09:17:37;;;;;;;5.30;2.58;;;;;;;;;;5011947;28;20195;-61
2022/04/15 09:20:05;;;;;;;7.20;2.25;;;;;;;;;;5011958;28;20037;-60
2022/04/15 09:22:32;;;;;;;4.47;2.35;;;;;;;;;;5012534;28;20046;-61
2022/04/15 09:25:00;;;;;;;5.00;2.75;;;;;;;;;;5011643;28;20132;-60
2022/04/15 09:27:29;;;;;;;5.05;2.28;;;;;;;;;;5012654;28;20037;-61
2022/04/15 09:29:56;;;;;;;4.07;1.67;;;;;;;;;;5020809;28;20525;-60
2022/04/15 09:32:24;;;;;;;4.88;2.47;;;;;;;;;;5050412;28;20044;-60
2022/04/15 09:34:54;;;;;;;4.25;2.10;;;;;;;;;;5054102;28;20033;-58
2022/04/15 09:37:21;;;;;;;3.72;1.45;;;;;;;;;;5053093;28;20047;-61
2022/04/15 09:40:05;;;;;;;0.68;0.45;;;;;;;;;;5052303;28;20064;-60
2022/04/15 09:42:36;;;;;;;2.65;1.05;;;;;;;;;;5054925;28;20111;-59
2022/04/15 09:45:13;;;;;;;2.38;0.98;;;;;;;;;;5053847;28;20702;-60
2022/04/15 09:47:40;;;;;;;3.75;1.67;;;;;;;;;;5038861;28;20047;-59
2022/04/15 09:50:26;;;;;;;6.20;1.73;;;;;;;;;;5038152;28;20045;-60
2022/04/15 09:52:53;;;;;;;6.85;1.77;;;;;;;;;;5039269;28;20047;-58
2022/04/15 09:55:20;;;;;;;2.75;1.40;;;;;;;;;;5040210;28;20043;-60
2022/04/15 09:57:50;;;;;;;3.67;1.55;;;;;;;;;;5040049;28;20482;-60
2022/04/15 10:00:18;;;;;;;8.57;1.63;;;;;;;;;;5039671;28;20044;-59
2022/04/15 10:02:45;;;;;;;3.55;1.70;;;;;;;;;;5039640;28;20104;-61
2022/04/15 10:05:13;;;;;;;3.45;1.80;;;;;;;;;;5040756;28;20131;-60
2022/04/15 10:07:43;;;;;;;2.58;1.17;;;;;;;;;;5038299;28;20043;-60
2022/04/15 10:10:11;;;;;;;6.47;2.50;;;;;;;;;;5039716;28;20034;-60
2022/04/15 10:12:39;;;;;;;9.05;3.08;;;;;;;;;;5037600;28;21866;-60
2022/04/15 10:15:10;;;;;;;6.70;3.38;;;;;;;;;;5041303;28;20043;-61
2022/04/15 10:17:40;;;;;;;3.67;1.77;;;;;;;;;;5043272;28;20043;-60
2022/04/15 10:20:10;;;;;;;4.43;2.28;;;;;;;;;;5044835;28;20553;-60
2022/04/15 10:22:38;;;;;;;6.93;2.55;;;;;;;;;;5042609;28;20037;-63
2022/04/15 10:25:06;;;;;;;5.88;3.20;;;;;;;;;;5043716;28;20048;-61
2022/04/15 10:27:32;;;;;;;4.15;1.98;;;;;;;;;;5043531;28;20044;-62
2022/04/15 10:30:14;;;;;;;4.93;2.60;;;;;;;;;;5024505;28;20045;-61
2022/04/15 10:32:52;;;;;;;4.18;2.22;;;;;;;;;;5044810;28;20060;-60
2022/04/15 10:35:22;;;;;;;4.40;2.10;;;;;;;;;;5048688;28;20037;-60
2022/04/15 10:38:19;;;;;;;4.53;2.30;;;;;;;;;;5046575;28;20125;-61
2022/04/15 10:40:46;;;;;;;5.95;2.58;;;;;;;;;;5032426;28;20067;-61
2022/04/15 10:43:21;;;;;;;5.13;2.38;;;;;;;;;;5046923;28;20484;-61
2022/04/15 10:45:48;;;;;;;4.88;2.10;;;;;;;;;;5028601;28;20053;-60
2022/04/15 10:48:14;;;;;;;9.32;1.92;;;;;;;;;;5044277;28;20126;-61
2022/04/15 10:50:43;;;;;;;5.32;2.17;;;;;;;;;;5042864;28;20703;-59
2022/04/15 10:53:19;;;;;;;5.97;2.08;;;;;;;;;;5043772;28;20045;-60
2022/04/15 10:55:49;;;;;;;9.75;2.92;;;;;;;;;;5042451;28;20074;-61
2022/04/15 10:58:16;;;;;;;5.00;2.25;;;;;;;;;;5043653;28;20139;-60
2022/04/15 11:03:31;;;;;;;5.55;2.60;;;;;;;;;;5043188;28;20044;-62
2022/04/15 11:05:59;;;;;;;7.85;2.83;;;;;;;;;;5042398;28;20116;-62
2022/04/15 11:08:27;;;;;;;7.63;2.92;;;;;;;;;;5043179;28;20148;-61
2022/04/15 11:11:02;;;;;;;4.38;2.22;;;;;;;;;;5042705;28;20072;-61
2022/04/15 11:13:42;;;;;;;7.82;2.85;;;;;;;;;;5041460;28;20881;-60
2022/04/15 11:16:13;;;;;;;5.50;2.35;;;;;;;;;;5044043;28;20450;-61
2022/04/15 11:18:43;;;;;;;5.28;2.50;;;;;;;;;;5041242;28;20099;-61
2022/04/15 11:21:17;;;;;;;5.47;2.15;;;;;;;;;;5043152;28;20193;-60
2022/04/15 11:23:51;;;;;;;7.97;2.72;;;;;;;;;;5040836;28;20045;-60
2022/04/15 11:26:18;;;;;;;6.75;3.15;;;;;;;;;;5042963;28;20486;-61
2022/04/15 11:28:50;;;;;;;6.70;2.83;;;;;;;;;;5040423;28;20059;-59
2022/04/15 11:31:23;;;;;;;5.93;3.25;;;;;;;;;;5041918;28;20036;-60
2022/04/15 11:33:50;;;;;;;5.30;2.30;;;;;;;;;;5043773;28;20133;-60
2022/04/15 11:36:20;;;;;;;8.77;2.95;;;;;;;;;;5043372;28;20043;-60
2022/04/15 11:38:48;;;;;;;7.28;2.75;;;;;;;;;;5041282;28;20037;-62
2022/04/15 11:41:21;;;;;;;5.47;2.55;;;;;;;;;;5042441;28;20045;-62
2022/04/15 11:44:08;;;;;;;8.43;2.42;;;;;;;;;;5043260;28;20068;-62
2022/04/15 11:46:54;;;;;;;6.13;2.40;;;;;;;;;;5041129;28;20047;-62
2022/04/15 11:49:26;;;;;;;4.53;2.28;;;;;;;;;;5040067;28;20111;-62
2022/04/15 11:51:56;;;;;;;6.22;2.38;;;;;;;;;;5043196;28;20041;-61
2022/04/15 11:54:23;;;;;;;6.22;2.65;;;;;;;;;;5041478;28;20044;-62
2022/04/15 11:56:57;;;;;;;6.53;2.50;;;;;;;;;;5041106;28;20060;-62
2022/04/15 11:59:24;;;;;;;3.78;1.85;;;;;;;;;;5042127;28;20958;-61
2022/04/15 12:01:51;;;;;;;4.43;2.17;;;;;;;;;;5043030;28;20035;-58
2022/04/15 12:04:18;;;;;;;3.97;1.80;;;;;;;;;;5021810;28;20359;-63
2022/04/15 12:06:45;;;;;;;7.15;2.15;;;;;;;;;;5040370;28;20043;-62
2022/04/15 12:09:12;;;;;;;5.78;1.80;;;;;;;;;;5041234;28;20123;-59
2022/04/15 12:11:39;;;;;;;16.08;1.98;;;;;;;;;;5041349;28;20036;-61
2022/04/15 12:14:07;;;;;;;4.72;2.05;;;;;;;;;;5042202;28;20048;-61
2022/04/15 12:16:35;;;;;;;3.90;1.90;;;;;;;;;;5041665;28;20049;-61
2022/04/15 12:19:03;;;;;;;5.85;1.92;;;;;;;;;;5041714;28;20218;-62
2022/04/15 12:21:30;;;;;;;4.28;1.90;;;;;;;;;;5041428;28;20048;-62
2022/04/15 12:24:00;;;;;;;3.85;1.77;;;;;;;;;;5040859;28;20037;-62
2022/04/15 12:26:27;;;;;;;4.15;1.98;;;;;;;;;;5021053;28;20047;-62
2022/04/15 12:31:47;;;;;;;3.63;1.13;;;;;;;;;;5040081;28;20045;-57
2022/04/15 12:34:14;;;;;;;3.05;1.25;;;;;;;;;;5041591;28;20132;-61
2022/04/15 12:36:47;;;;;;;6.43;2.08;;;;;;;;;;5040614;28;20091;-61
2022/04/15 12:39:14;;;;;;;3.35;1.52;;;;;;;;;;5040834;28;20701;-60
2022/04/15 12:41:42;;;;;;;3.67;1.50;;;;;;;;;;5040472;28;20105;-60
2022/04/15 12:44:16;;;;;;;6.15;1.95;;;;;;;;;;5040024;28;20089;-59
2022/04/15 12:46:47;;;;;;;5.95;1.90;;;;;;;;;;5038713;28;20040;-60
2022/04/15 12:49:27;;;;;;;4.00;1.90;;;;;;;;;;5040931;28;20872;-60
2022/04/15 12:51:58;;;;;;;7.07;2.25;;;;;;;;;;5040765;28;20345;-60
2022/04/15 12:54:26;;;;;;;5.32;1.92;;;;;;;;;;5041602;28;20413;-60
2022/04/15 12:56:53;;;;;;;5.63;1.73;;;;;;;;;;5041660;28;20052;-61
2022/04/15 12:59:20;;;;;;;3.15;1.48;;;;;;;;;;5042885;28;20039;-59
2022/04/15 13:01:47;;;;;;;8.73;1.67;;;;;;;;;;5040391;28;20110;-60
2022/04/15 13:04:16;;;;;;;6.00;1.73;;;;;;;;;;5040238;28;20041;-60
2022/04/15 13:06:43;;;;;;;9.13;1.70;;;;;;;;;;5038341;28;20779;-61
2022/04/15 13:09:10;;;;;;;3.80;1.23;;;;;;;;;;5039839;28;20102;-61
2022/04/15 13:11:37;;;;;;;4.70;1.55;;;;;;;;;;5041046;28;20049;-59
2022/04/15 13:14:04;;;;;;;5.82;1.85;;;;;;;;;;5019992;28;20042;-61
2022/04/15 13:16:31;;;;;;;10.25;1.90;;;;;;;;;;5039752;28;20086;-61
2022/04/15 13:18:58;;;;;;;5.22;1.60;;;;;;;;;;5039849;28;20048;-59
2022/04/15 13:21:25;;;;;;;3.55;1.23;;;;;;;;;;5040004;28;20396;-60
2022/04/15 13:23:52;;;;;;;1.70;0.80;;;;;;;;;;5039633;28;20113;-61
2022/04/15 13:26:18;;;;;;;4.32;1.63;;;;;;;;;;5039420;28;20033;-60
2022/04/15 13:28:45;;;;;;;2.97;1.30;;;;;;;;;;5039609;28;20500;-61
2022/04/15 13:31:12;;;;;;;3.33;1.30;;;;;;;;;;5040180;28;20524;-60
2022/04/15 13:33:40;;;;;;;2.55;1.02;;;;;;;;;;5039281;28;20409;-61
2022/04/15 13:36:07;;;;;;;2.45;0.93;;;;;;;;;;5040820;28;20102;-61
2022/04/15 13:38:33;;;;;;;2.92;1.17;;;;;;;;;;5018707;28;20455;-60
2022/04/15 13:41:00;;;;;;;3.45;1.25;;;;;;;;;;5039505;28;20116;-59
2022/04/15 13:43:27;;;;;;;3.95;1.67;;;;;;;;;;5040125;28;20047;-61
2022/04/15 13:45:54;;;;;;;13.55;1.90;;;;;;;;;;5039854;28;20039;-60
2022/04/15 13:48:21;;;;;;;3.60;1.50;;;;;;;;;;5038864;28;20053;-62
2022/04/15 13:50:48;;;;;;;5.25;1.98;;;;;;;;;;5039345;28;20119;-61
2022/04/15 13:58:45;;;;;;;2.72;1.20;;;;;;;;;;5039570;28;20055;-60
2022/04/15 14:01:33;;;;;;;3.63;1.52;;;;;;;;;;5040731;28;20113;-61
2022/04/15 14:04:01;;;;;;;2.97;1.55;;;;;;;;;;5039133;28;20893;-60
2022/04/15 14:06:28;;;;;;;4.68;1.88;;;;;;;;;;5038708;28;20045;-60
2022/04/15 14:08:54;;;;;;;3.22;1.33;;;;;;;;;;5039386;28;20057;-61
2022/04/15 14:11:22;;;;;;;3.28;1.50;;;;;;;;;;5039160;28;20044;-60
2022/04/15 14:13:50;;;;;;;3.78;1.75;;;;;;;;;;5038434;28;20042;-61
2022/04/15 14:16:16;;;;;;;4.70;1.90;;;;;;;;;;5039385;28;20033;-62
2022/04/15 14:18:44;;;;;;;3.42;1.63;;;;;;;;;;5038675;28;20164;-62
2022/04/15 14:21:11;;;;;;;3.63;1.67;;;;;;;;;;5040320;28;20882;-62
2022/04/15 14:23:37;;;;;;;4.88;1.77;;;;;;;;;;5038560;28;20044;-62
2022/04/15 14:26:05;;;;;;;3.95;1.77;;;;;;;;;;5039894;28;20032;-62
2022/04/15 14:28:32;;;;;;;5.28;2.28;;;;;;;;;;5038149;28;20049;-62
2022/04/15 14:30:59;;;;;;;7.15;2.25;;;;;;;;;;5040005;28;20045;-61
2022/04/15 14:33:26;;;;;;;6.97;2.42;;;;;;;;;;5037882;28;20128;-61
2022/04/15 14:35:53;;;;;;;4.60;2.28;;;;;;;;;;5037677;28;20105;-62
2022/04/15 14:38:20;;;;;;;4.68;1.85;;;;;;;;;;5038788;28;20123;-62
2022/04/15 14:40:46;;;;;;;4.00;2.03;;;;;;;;;;5039609;28;20096;-60
2022/04/15 14:43:13;;;;;;;5.05;2.25;;;;;;;;;;5038946;28;20409;-61
2022/04/15 14:45:40;;;;;;;4.15;1.90;;;;;;;;;;5037948;28;20060;-60
2022/04/15 14:48:07;;;;;;;5.18;2.00;;;;;;;;;;5036377;28;20033;-61
2022/04/15 14:50:33;;;;;;;7.88;2.15;;;;;;;;;;5037827;28;20043;-61
2022/04/15 14:53:00;;;;;;;4.90;2.00;;;;;;;;;;5039438;28;20051;-61
2022/04/15 14:55:27;;;;;;;4.85;1.70;;;;;;;;;;5038398;28;20670;-61
2022/04/15 14:57:54;;;;;;;5.28;2.00;;;;;;;;;;5040309;28;20037;-61
2022/04/15 15:00:20;;;;;;;6.47;2.15;;;;;;;;;;5020187;28;20071;-61